createdAt,value
2018-10-12T00:04:32.848Z,20.80
2018-10-12T00:07:16.753Z,18.75
2018-10-12T00:07:49.819Z,18.30
2018-10-12T00:08:56.375Z,18.70
2018-10-12T00:09:29.424Z,19.17
2018-10-12T00:12:45.050Z,17.80
2018-10-12T00:24:45.017Z,19.15
2018-10-12T00:25:18.060Z,19.45
2018-10-12T00:34:01.134Z,18.98
2018-10-12T00:34:34.176Z,18.58
2018-10-12T00:35:07.223Z,19.42
2018-10-12T00:35:40.275Z,18.62
2018-10-12T00:36:13.316Z,18.05
2018-10-12T00:36:46.372Z,17.65
2018-10-12T00:37:19.435Z,19.55
2018-10-12T00:37:52.492Z,19.37
2018-10-12T00:38:25.513Z,18.87
2018-10-12T00:46:35.464Z,19.73
2018-10-12T00:47:08.524Z,19.40
2018-10-12T00:47:41.551Z,17.77
2018-10-12T00:48:14.597Z,18.60
2018-10-12T00:48:47.641Z,18.42
2018-10-12T00:49:20.808Z,19.45
2018-10-12T00:49:53.956Z,18.70
2018-10-12T00:50:26.901Z,17.23
2018-10-12T00:50:59.938Z,19.15
2018-10-12T00:51:32.976Z,18.27
2018-10-12T00:52:06.027Z,19.25
2018-10-12T00:52:39.062Z,17.70
2018-10-12T00:53:45.377Z,20.10
2018-10-12T01:07:21.937Z,18.90
2018-10-12T01:07:54.969Z,18.05
2018-10-12T01:08:28.009Z,18.42
2018-10-12T01:09:01.039Z,18.58
2018-10-12T01:09:34.097Z,18.50
2018-10-12T01:10:07.137Z,16.90
2018-10-12T01:10:40.196Z,20.55
2018-10-12T01:11:13.231Z,18.45
2018-10-12T01:11:46.264Z,18.03
2018-10-12T01:12:19.356Z,17.70
2018-10-12T01:12:52.360Z,19.10
2018-10-12T01:19:57.164Z,17.62
2018-10-12T01:20:30.201Z,17.80
2018-10-12T01:21:03.276Z,18.95
2018-10-12T01:21:36.323Z,19.08
2018-10-12T01:22:41.883Z,18.70
2018-10-12T01:23:15.702Z,19.00
2018-10-12T01:24:21.235Z,20.25
2018-10-12T01:24:54.272Z,19.58
2018-10-12T01:42:18.827Z,21.10
2018-10-12T01:42:51.876Z,21.77
2018-10-12T01:43:25.107Z,19.70
2018-10-12T01:43:58.934Z,20.77
2018-10-12T01:44:31.972Z,19.73
2018-10-12T01:45:05.026Z,21.92
2018-10-12T01:45:38.099Z,21.70
2018-10-12T01:46:11.156Z,21.95
2018-10-12T01:46:44.204Z,19.12
2018-10-12T01:47:17.248Z,20.52
2018-10-12T01:47:50.293Z,19.48
2018-10-12T01:48:23.352Z,20.30
2018-10-12T01:48:56.397Z,20.73
2018-10-12T01:49:30.196Z,22.08
2018-10-12T01:50:03.241Z,20.85
2018-10-12T01:50:36.306Z,20.00
2018-10-12T01:51:09.556Z,20.17
2018-10-12T01:51:42.840Z,21.70
2018-10-12T01:52:16.108Z,19.85
2018-10-12T01:52:49.168Z,20.50
2018-10-12T01:53:22.216Z,19.98
2018-10-12T01:53:55.252Z,19.58
2018-10-12T01:54:28.300Z,19.67
2018-10-12T01:55:01.341Z,20.40
2018-10-12T01:55:34.375Z,21.42
2018-10-12T01:56:07.424Z,21.42
2018-10-12T01:56:40.465Z,21.33
2018-10-12T01:57:14.269Z,20.40
2018-10-12T01:57:48.072Z,20.17
2018-10-12T01:58:21.887Z,20.17
2018-10-12T01:58:54.917Z,19.40
2018-10-12T01:59:27.968Z,20.98
2018-10-12T02:00:01.023Z,19.33
2018-10-12T02:00:34.072Z,20.77
2018-10-12T02:01:07.150Z,21.95
2018-10-12T02:01:40.944Z,20.60
2018-10-12T02:03:51.531Z,20.70
2018-10-12T02:04:24.572Z,20.62
2018-10-12T02:04:57.616Z,20.17
2018-10-12T02:05:30.674Z,19.17
2018-10-12T02:06:03.734Z,19.90
2018-10-12T02:06:36.925Z,20.37
2018-10-12T02:07:09.965Z,20.52
2018-10-12T02:07:43.108Z,19.87
2018-10-12T02:08:16.156Z,21.12
2018-10-12T02:08:49.204Z,20.42
2018-10-12T02:09:22.254Z,19.65
2018-10-12T02:09:55.310Z,21.23
2018-10-12T02:14:48.597Z,21.50
2018-10-12T02:15:22.395Z,20.52
2018-10-12T02:15:55.443Z,21.62
2018-10-12T02:16:28.508Z,20.08
2018-10-12T02:17:01.569Z,21.65
2018-10-12T02:22:29.309Z,20.60
2018-10-12T02:23:02.405Z,21.23
2018-10-12T02:23:35.440Z,20.60
2018-10-12T02:24:09.244Z,20.92
2018-10-12T02:24:42.284Z,21.25
2018-10-12T02:25:15.324Z,20.55
2018-10-12T02:25:48.499Z,22.17
2018-10-12T02:26:21.551Z,21.12
2018-10-12T02:26:54.596Z,21.23
2018-10-12T02:27:28.399Z,20.95
2018-10-12T02:28:02.209Z,21.95
2018-10-12T02:28:35.242Z,22.48
2018-10-12T02:29:08.272Z,23.60
2018-10-12T02:29:41.316Z,21.67
2018-10-12T02:30:14.376Z,23.58
2018-10-12T02:30:47.409Z,22.00
2018-10-12T02:31:20.479Z,22.40
2018-10-12T02:31:53.536Z,22.13
2018-10-12T02:32:26.589Z,22.02
2018-10-12T02:33:00.381Z,22.37
2018-10-12T02:33:33.413Z,21.92
2018-10-12T02:34:06.474Z,21.00
2018-10-12T02:34:39.480Z,22.80
2018-10-12T02:35:12.531Z,22.07
2018-10-12T02:35:45.581Z,22.55
2018-10-12T02:36:18.614Z,21.37
2018-10-12T02:36:51.665Z,22.58
2018-10-12T02:40:40.598Z,24.05
2018-10-12T02:41:13.646Z,23.53
2018-10-12T02:47:47.074Z,22.35
2018-10-12T02:52:09.388Z,23.23
2018-10-12T02:52:42.414Z,23.23
2018-10-12T02:53:15.453Z,23.23
2018-10-12T02:53:48.494Z,23.42
2018-10-12T02:54:21.532Z,23.40
2018-10-12T02:54:54.561Z,24.42
2018-10-12T02:55:27.596Z,23.70
2018-10-12T02:56:00.643Z,22.75
2018-10-12T02:56:34.448Z,24.25
2018-10-12T02:57:07.509Z,25.10
2018-10-12T02:57:40.555Z,25.62
2018-10-12T02:58:13.608Z,24.90
2018-10-12T02:58:46.640Z,25.02
2018-10-12T02:59:20.440Z,26.17
2018-10-12T02:59:53.477Z,24.83
2018-10-12T03:00:26.517Z,24.58
2018-10-12T03:00:59.591Z,23.30
2018-10-12T03:01:32.759Z,25.60
2018-10-12T03:02:05.807Z,25.62
2018-10-12T03:02:38.864Z,26.92
2018-10-12T03:03:12.024Z,26.25
2018-10-12T03:03:45.060Z,24.83
2018-10-12T03:04:18.115Z,25.50
2018-10-12T03:04:51.159Z,25.35
2018-10-12T03:05:25.538Z,25.05
2018-10-12T03:05:58.581Z,25.92
2018-10-12T03:06:31.626Z,25.77
2018-10-12T03:07:04.641Z,25.48
2018-10-12T03:07:37.734Z,24.92
2018-10-12T03:08:10.784Z,25.02
2018-10-12T03:08:43.846Z,24.33
2018-10-12T03:09:16.887Z,24.65
2018-10-12T03:09:49.936Z,26.12
2018-10-12T03:10:22.969Z,24.75
2018-10-12T03:10:56.763Z,25.23
2018-10-12T03:11:30.011Z,25.85
2018-10-12T03:12:03.024Z,24.00
2018-10-12T03:12:36.089Z,24.30
2018-10-12T03:13:09.125Z,24.12
2018-10-12T03:13:42.155Z,23.55
2018-10-12T03:14:15.195Z,22.60
2018-10-12T03:14:49.059Z,23.62
2018-10-12T03:15:22.102Z,24.37
2018-10-12T03:15:55.139Z,24.58
2018-10-12T03:16:28.944Z,25.10
2018-10-12T03:17:02.745Z,25.30
2018-10-12T03:17:35.807Z,23.85
2018-10-12T03:18:08.861Z,24.60
2018-10-12T03:18:41.908Z,24.95
2018-10-12T03:19:14.940Z,25.00
2018-10-12T03:19:47.983Z,23.55
2018-10-12T03:20:21.012Z,24.98
2018-10-12T03:20:54.052Z,23.67
2018-10-12T03:21:27.092Z,24.30
2018-10-12T03:22:00.906Z,25.08
2018-10-12T03:22:33.964Z,27.08
2018-10-12T03:23:07.012Z,26.25
2018-10-12T03:23:40.049Z,24.67
2018-10-12T03:24:13.871Z,24.50
2018-10-12T03:24:46.900Z,24.37
2018-10-12T03:25:19.944Z,24.37
2018-10-12T03:25:53.746Z,25.05
2018-10-12T03:26:26.804Z,24.20
2018-10-12T03:26:59.857Z,24.20
2018-10-12T03:27:32.923Z,26.35
2018-10-12T03:28:11.490Z,24.40
2018-10-12T03:28:44.553Z,24.08
2018-10-12T03:29:17.602Z,24.87
2018-10-12T03:29:50.633Z,24.30
2018-10-12T03:30:23.672Z,24.87
2018-10-12T03:30:56.709Z,25.52
2018-10-12T03:31:29.760Z,25.60
2018-10-12T03:32:02.804Z,23.85
2018-10-12T03:32:35.881Z,24.63
2018-10-12T03:33:09.024Z,24.10
2018-10-12T03:33:42.084Z,24.87
2018-10-12T03:34:15.121Z,25.05
2018-10-12T03:34:48.169Z,26.65
2018-10-12T03:35:21.988Z,25.10
2018-10-12T03:35:55.068Z,24.60
2018-10-12T03:36:28.879Z,25.80
2018-10-12T03:37:01.994Z,26.40
2018-10-12T03:37:34.976Z,25.75
2018-10-12T03:38:08.020Z,27.58
2018-10-12T03:38:41.068Z,27.45
2018-10-12T03:39:14.120Z,26.58
2018-10-12T03:39:47.169Z,27.10
2018-10-12T03:40:20.219Z,26.80
2018-10-12T03:40:53.260Z,24.63
2018-10-12T03:41:27.069Z,25.75
2018-10-12T03:42:00.108Z,28.60
2018-10-12T03:42:33.173Z,26.98
2018-10-12T03:43:06.236Z,26.73
2018-10-12T03:43:39.459Z,29.73
2018-10-12T03:44:12.489Z,26.27
2018-10-12T03:44:45.537Z,26.70
2018-10-12T03:45:18.584Z,25.37
2018-10-12T03:45:51.700Z,27.27
2018-10-12T03:46:24.740Z,26.58
2018-10-12T03:46:58.553Z,25.90
2018-10-12T03:47:31.588Z,25.88
2018-10-12T03:48:04.686Z,27.85
2018-10-12T03:48:38.476Z,25.20
2018-10-12T03:49:12.604Z,26.83
2018-10-12T03:49:45.807Z,25.67
2018-10-12T03:50:18.906Z,25.98
2018-10-12T03:50:51.946Z,26.02
2018-10-12T03:51:24.988Z,28.30
2018-10-12T03:51:58.129Z,26.65
2018-10-12T03:52:31.063Z,30.48
2018-10-12T03:53:04.113Z,29.37
2018-10-12T03:53:37.160Z,26.23
2018-10-12T03:54:10.211Z,28.85
2018-10-12T03:54:43.268Z,24.42
2018-10-12T03:55:16.312Z,27.02
2018-10-12T03:55:49.370Z,26.02
2018-10-12T03:56:22.420Z,28.92
2018-10-12T03:56:55.457Z,27.23
2018-10-12T03:57:28.491Z,27.50
2018-10-12T03:58:02.320Z,27.52
2018-10-12T03:58:35.363Z,27.60
2018-10-12T03:59:09.181Z,27.35
2018-10-12T03:59:42.217Z,25.88
2018-10-12T04:00:15.264Z,28.17
2018-10-12T04:00:48.301Z,28.67
2018-10-12T04:01:21.346Z,28.65
2018-10-12T04:01:54.394Z,28.12
2018-10-12T04:02:28.200Z,28.90
2018-10-12T04:03:01.643Z,29.40
2018-10-12T04:03:34.697Z,25.70
2018-10-12T04:04:07.720Z,25.90
2018-10-12T04:04:40.777Z,28.02
2018-10-12T04:05:13.832Z,27.15
2018-10-12T04:05:46.865Z,25.30
2018-10-12T04:06:19.904Z,25.88
2018-10-12T04:06:53.104Z,26.08
2018-10-12T04:07:26.155Z,27.80
2018-10-12T04:07:59.213Z,27.70
2018-10-12T04:08:32.272Z,27.08
2018-10-12T04:09:05.334Z,25.83
2018-10-12T04:09:39.141Z,26.75
2018-10-12T04:10:12.206Z,25.37
2018-10-12T04:10:45.251Z,25.83
2018-10-12T04:11:18.304Z,29.77
2018-10-12T04:11:51.336Z,25.58
2018-10-12T04:12:24.411Z,27.85
2018-10-12T04:12:57.428Z,26.45
2018-10-12T04:13:30.480Z,26.90
2018-10-12T04:14:03.720Z,23.87
2018-10-12T04:14:36.737Z,27.55
2018-10-12T04:15:09.931Z,24.98
2018-10-12T04:15:43.114Z,26.20
2018-10-12T04:16:16.928Z,25.67
2018-10-12T04:16:49.963Z,25.25
2018-10-12T04:17:23.294Z,25.33
2018-10-12T04:17:56.344Z,26.17
2018-10-12T04:18:29.397Z,26.55
2018-10-12T04:19:02.569Z,25.12
2018-10-12T04:19:35.601Z,25.77
2018-10-12T04:20:08.642Z,27.52
2018-10-12T04:20:41.682Z,29.42
2018-10-12T04:21:14.723Z,27.02
2018-10-12T04:21:47.757Z,23.52
2018-10-12T04:22:20.801Z,25.98
2018-10-12T04:22:54.621Z,27.67
2018-10-12T04:23:27.680Z,27.02
2018-10-12T04:24:00.715Z,26.73
2018-10-12T04:24:35.329Z,25.62
2018-10-12T15:50:32.268Z,3.00
2018-10-12T15:51:06.795Z,3.60
2018-10-12T15:52:20.785Z,2.87
2018-10-12T19:25:41.164Z,4.45
2018-10-12T19:26:14.290Z,3.80
2018-10-12T19:26:47.571Z,4.57
2018-10-12T19:27:20.677Z,4.40
2018-10-12T19:36:35.682Z,3.90
2018-10-12T19:42:35.449Z,4.50
2018-10-12T19:43:15.592Z,3.78
2018-10-12T19:43:48.704Z,4.72
2018-10-12T19:44:23.568Z,4.22
2018-10-12T19:44:58.299Z,4.12
2018-10-12T19:45:31.560Z,4.10
2018-10-12T19:46:04.981Z,4.03
2018-10-12T19:46:39.042Z,3.87
2018-10-12T19:47:13.277Z,4.75
2018-10-12T19:47:47.232Z,4.82
2018-10-12T19:48:21.228Z,4.30
2018-10-12T19:48:54.356Z,3.67
2018-10-12T19:49:28.472Z,3.72
2018-10-12T19:51:10.393Z,3.55
2018-10-12T22:01:20.435Z,4.35
2018-10-12T22:02:27.515Z,4.60
2018-10-12T22:03:33.116Z,4.20
2018-10-12T22:04:06.152Z,4.20
2018-10-12T22:05:45.625Z,4.30
2018-10-12T22:34:37.715Z,4.60
2018-10-12T22:36:15.796Z,4.40
2018-10-12T22:36:48.850Z,4.55
2018-10-12T22:37:21.889Z,4.10
2018-10-12T22:37:54.915Z,4.10
2018-10-12T22:39:00.520Z,4.05
2018-10-12T22:40:06.146Z,4.22
2018-10-12T22:40:39.200Z,4.60
2018-10-12T22:41:44.764Z,4.70
2018-10-12T22:43:22.887Z,4.80
2018-10-12T22:43:56.741Z,4.20
2018-10-12T22:44:29.776Z,4.60
2018-10-12T22:45:02.892Z,4.30
2018-10-12T22:45:35.979Z,4.10
2018-10-12T22:46:09.080Z,4.40
2018-10-12T22:46:42.137Z,4.40
2018-10-12T22:47:15.955Z,3.80
2018-10-12T22:48:22.008Z,3.80
2018-10-12T22:49:27.544Z,4.25
2018-10-12T22:50:00.589Z,3.80
2018-10-12T22:50:33.623Z,3.80
2018-10-12T22:51:39.356Z,3.80
2018-10-12T22:52:12.411Z,3.55
2018-10-12T22:59:50.785Z,4.70
2018-10-12T23:00:23.826Z,4.20
2018-10-12T23:00:56.864Z,4.50
2018-10-12T23:19:58.648Z,4.20
2018-10-12T23:24:20.913Z,4.20
2018-10-12T23:28:09.742Z,5.05
2018-10-12T23:30:20.311Z,4.50
2018-10-12T23:30:54.144Z,4.40
2018-10-12T23:31:27.926Z,4.30
2018-10-12T23:32:00.960Z,4.30
2018-10-12T23:32:34.038Z,4.60
2018-10-12T23:35:16.377Z,4.10
2018-10-12T23:35:50.206Z,4.20
2018-10-12T23:36:56.537Z,4.70
2018-10-12T23:38:02.123Z,3.80
